Airfield :
LOGIN :

Register | Disclaimer

   EN    FR    IT 

 










Legend :    VFR   Marginal VFR   IFR   Intensive IFR   Very Intensive IFR
Visi :
Ceiling :
>= 8 km
>= 3000ft
5 to 8 km
1000 to 3000 ft
1500m to 5 km
500 to 1000 ft
800 to 1500m
200 to 500 ft
< 800m
< 200 ft
Symbols :   Thunderstorms  Fog  Heavy snow  Heavy precipitations  Wind > 20 kt
SIGMETs :     Misc.  Thunderstorms  Icing  Turbulence  Mountain Waves  Volcanic Ashes






- Airport Elevation : 33 ft
- IATA code : MHZ


EGUN - RAF Mildenhall

CURRENT METAR :
  • 240426Z 19003KT 2600 BR OVC004 12/12 A2962 RMK AO2A VIS 2800 RWY29 CIG 004V006 SLP033 $

EXPIRED METARs :
  • 240356Z 00000KT 2600 BR OVC003 12/12 A2963 RMK AO2A VIS 2400 RWY29 SLP037 T01170117 $
  • 240341Z 00000KT 2200 BR OVC004 12/12 A2963 RMK AO2A VIS 2200 RWY29 CIG 004V006 SLP037 $
  • 240301Z 00000KT 1800 BR FEW002 OVC005 12/12 A2964 RMK AO2A VIS 1800 RWY29 CIG 004 RWY29 SLP040 $
  • 240221Z 00000KT 9999 BR OVC006 12/12 A2965 RMK AO2A VIS 4400 RWY29 SLP044 $
  • 240201Z 00000KT 9999 BR OVC005 12/12 A2966 RMK AO2A VIS 4000 RWY29 SLPNO $
  • 240146Z 00000KT 9999 BR OVC004 12/12 A2967 RMK AO2A VIS 4000 RWY29 SLPNO $

TAF TAF EGUN
Valid from the 24 at 04:00 until the 25 at 10:00 UTC


240400Z 2404/2510 25006KT 3200 BR OVC002 QNH2963INS
BECMG 2408/2409 18006KT 5000 BR OVC009 QNH2964INS
BECMG 2411/2412 26012KT 8000 -RA BKN012 QNH2964INS
BECMG 2417/2418 24009KT 9999 NSW BKN005 QNH2972INS
BECMG 2420/2421 23009KT 9999 SCT005 QNH2979INS TX13/2413Z TN09/2500Z



MET'MAP, your aeronautical weather chart ! - Copyright ORBIFLY December 2007 - Disclaimer

ORBIFLY MET'MAP TEAM :

Programming & Development : Alexandra Zaïnal
Concept & Development : Baudouin d'Aumeries
Co-Development & Prog : Marc-Olivier Méhu
Technical & hardware support : Manuel Goepfert

Contact : metmap@orbifly.com




SOURCES & CREDITS :

   NOAA